Time;durP1;ratioP1;P1;durP2;ratioP2;P2;SDS_P1;SDS_P2;PMS_P1;PMS_P2;Temp;Humidity;BMP_temperature;BMP_pressure;BME280_temperature;BME280_humidity;BME280_pressure;Samples;Min_cycle;Max_cycle;Signal;HPM_P1;HPM_P2
2021/11/12 09:29:24;;;;;;;42.43;19.67;;;9.10;98.30;;;;;;5159696;23;20467;-83
2021/11/12 13:58:12;;;;;;;10.50;9.10;;;9.90;98.30;;;;;;5063615;23;20484;-81
2021/11/12 14:00:18;;;;;;;10.43;8.43;;;9.90;98.30;;;;;;5121579;23;20449;-81
2021/11/12 14:02:22;;;;;;;11.07;8.50;;;9.90;98.30;;;;;;5153085;23;20424;-81
2021/11/12 14:04:27;;;;;;;12.60;8.30;;;9.90;98.30;;;;;;5144032;23;20516;-81
2021/11/12 14:06:34;;;;;;;10.30;7.60;;;9.80;98.30;;;;;;5152745;23;20428;-81
2021/11/12 14:08:40;;;;;;;10.73;7.90;;;9.80;98.30;;;;;;5152960;23;20398;-81
2021/11/12 14:10:45;;;;;;;13.97;9.37;;;9.80;98.30;;;;;;5152782;23;20420;-81
2021/11/12 14:12:57;;;;;;;11.67;8.63;;;9.90;98.30;;;;;;5154202;23;20417;-81
2021/11/12 14:15:15;;;;;;;11.43;8.10;;;9.80;98.30;;;;;;5155978;23;20410;-81
2021/11/12 14:17:26;;;;;;;9.70;7.30;;;9.80;98.30;;;;;;5143959;23;20422;-81
2021/11/12 14:19:40;;;;;;;9.93;7.73;;;9.80;98.30;;;;;;5143500;23;20508;-81
2021/11/12 14:21:49;;;;;;;10.20;7.43;;;9.80;98.30;;;;;;5144872;23;20426;-81
2021/11/12 14:24:13;;;;;;;12.13;8.30;;;9.80;98.30;;;;;;5147996;23;20483;-81
2021/11/12 14:26:25;;;;;;;9.03;6.87;;;9.80;98.30;;;;;;5153556;23;20409;-81
2021/11/12 14:28:39;;;;;;;7.80;7.00;;;9.60;98.30;;;;;;5145754;23;20424;-81
2021/11/12 14:33:24;;;;;;;8.03;6.40;;;9.60;98.30;;;;;;5148727;23;20432;-84
2021/11/12 14:35:41;;;;;;;7.27;5.87;;;9.60;98.30;;;;;;5160159;23;20420;-83
2021/11/12 14:40:11;;;;;;;9.60;5.80;;;9.50;98.30;;;;;;5109856;23;20423;-80
2021/11/12 14:45:06;;;;;;;7.93;6.80;;;9.40;98.30;;;;;;5151933;23;20422;-80
2021/11/12 14:47:21;;;;;;;9.47;5.67;;;9.40;98.30;;;;;;5152092;23;20402;-80
2021/11/12 14:49:30;;;;;;;8.27;5.90;;;9.40;98.30;;;;;;5151345;23;20424;-80
2021/11/12 14:51:38;;;;;;;10.57;6.13;;;9.40;98.30;;;;;;5152238;23;20408;-81
2021/11/12 14:53:51;;;;;;;9.80;6.30;;;9.40;98.30;;;;;;5143571;23;20432;-81
2021/11/12 14:56:01;;;;;;;9.30;7.20;;;9.40;98.30;;;;;;5143832;23;20423;-81
2021/11/12 14:58:04;;;;;;;10.17;6.90;;;9.40;98.30;;;;;;5143672;23;20448;-80
2021/11/12 15:00:14;;;;;;;11.90;7.23;;;9.40;98.30;;;;;;5151876;23;20456;-80
2021/11/12 15:02:19;;;;;;;8.70;6.30;;;9.40;98.30;;;;;;5143159;23;20417;-80
2021/11/12 15:04:24;;;;;;;11.60;6.57;;;9.40;98.30;;;;;;5142243;23;20440;-81
2021/11/12 15:06:28;;;;;;;12.73;7.50;;;9.40;98.30;;;;;;5142558;23;20779;-80
2021/11/12 15:08:32;;;;;;;11.33;7.53;;;9.40;98.30;;;;;;5150901;23;20453;-80
2021/11/12 15:10:39;;;;;;;9.00;6.97;;;9.40;98.30;;;;;;5143135;23;20744;-80
2021/11/12 15:12:47;;;;;;;11.37;7.97;;;9.30;98.30;;;;;;5143066;23;21216;-80
2021/11/12 15:14:55;;;;;;;10.50;7.20;;;9.30;98.30;;;;;;5151029;23;20449;-81
2021/11/12 15:17:02;;;;;;;9.80;6.47;;;9.20;98.30;;;;;;5142894;23;20965;-80
2021/11/12 15:19:12;;;;;;;10.37;7.33;;;9.20;98.30;;;;;;5143183;23;20621;-80
2021/11/12 15:21:20;;;;;;;8.20;6.37;;;9.20;98.30;;;;;;5150860;23;20423;-80
2021/11/12 15:26:02;;;;;;;10.27;7.63;;;9.20;98.30;;;;;;5084262;23;20425;-80
2021/11/12 15:28:12;;;;;;;10.43;7.63;;;9.20;98.30;;;;;;5150313;23;20443;-79
2021/11/12 15:30:20;;;;;;;10.13;8.10;;;9.10;98.30;;;;;;5151134;23;20471;-80
2021/11/12 15:32:27;;;;;;;12.97;9.30;;;9.20;98.30;;;;;;5142797;23;20610;-80
2021/11/12 15:34:36;;;;;;;11.80;9.90;;;9.10;98.30;;;;;;5143310;23;20446;-80
2021/11/12 15:36:45;;;;;;;13.37;8.87;;;9.20;98.30;;;;;;5151556;23;20423;-80
2021/11/12 15:38:52;;;;;;;10.90;8.40;;;9.20;98.30;;;;;;5142409;23;20451;-80
2021/11/12 15:41:02;;;;;;;15.60;11.43;;;9.10;98.30;;;;;;5151335;23;20430;-80
2021/11/12 15:43:17;;;;;;;14.20;10.70;;;9.00;98.30;;;;;;5142300;23;20417;-80
2021/11/12 15:45:25;;;;;;;13.60;9.93;;;9.00;98.30;;;;;;5142897;23;20436;-80
2021/11/12 15:47:31;;;;;;;11.27;10.07;;;9.00;98.30;;;;;;5142851;23;20455;-80
2021/11/12 15:49:37;;;;;;;15.43;11.30;;;8.90;98.30;;;;;;5142628;23;20927;-80
2021/11/12 15:51:43;;;;;;;13.97;10.40;;;9.00;98.30;;;;;;5151113;23;20423;-80
2021/11/12 15:53:49;;;;;;;14.30;10.50;;;8.90;98.30;;;;;;5142465;23;20447;-80
2021/11/12 15:56:06;;;;;;;14.03;11.57;;;8.90;98.30;;;;;;5142247;23;20439;-80
2021/11/12 15:58:29;;;;;;;14.80;11.30;;;8.80;98.30;;;;;;5151005;23;20455;-80
2021/11/12 16:00:39;;;;;;;16.30;14.23;;;8.90;98.30;;;;;;5142055;23;20820;-80
2021/11/12 16:03:08;;;;;;;16.50;13.00;;;8.80;98.30;;;;;;5142294;23;20421;-80
2021/11/12 16:05:33;;;;;;;15.43;13.77;;;8.90;98.30;;;;;;5150626;23;20443;-80
2021/11/12 16:07:53;;;;;;;16.07;12.83;;;8.80;98.30;;;;;;5149032;23;20447;-79
2021/11/12 16:10:14;;;;;;;16.23;14.10;;;8.80;98.30;;;;;;5149258;23;20426;-79
2021/11/12 16:12:31;;;;;;;18.63;14.13;;;8.70;98.30;;;;;;5140765;23;21059;-78
2021/11/12 16:14:37;;;;;;;17.10;14.70;;;8.70;98.30;;;;;;5140478;23;20419;-79
2021/11/12 16:19:18;;;;;;;20.57;13.20;;;8.70;98.30;;;;;;5148483;23;20470;-79
2021/11/12 16:26:11;;;;;;;16.70;13.00;;;8.70;98.30;;;;;;5049055;23;20561;-79
2021/11/12 16:28:19;;;;;;;17.57;14.90;;;8.60;98.30;;;;;;5134479;23;20458;-80
2021/11/12 16:30:29;;;;;;;17.73;16.03;;;8.70;98.30;;;;;;5150538;23;20422;-79
2021/11/12 16:32:39;;;;;;;17.37;15.50;;;8.70;98.30;;;;;;5142308;23;20415;-79
2021/11/12 16:34:45;;;;;;;19.93;16.40;;;8.70;98.30;;;;;;5141727;23;20485;-79
2021/11/12 16:36:54;;;;;;;18.73;14.10;;;8.70;98.30;;;;;;5150532;23;20773;-79
2021/11/12 16:38:58;;;;;;;18.47;15.87;;;8.60;98.30;;;;;;5149152;23;20531;-79
2021/11/12 16:41:07;;;;;;;18.70;16.70;;;8.60;98.30;;;;;;5142031;23;20430;-79
2021/11/12 16:43:16;;;;;;;19.93;17.93;;;8.60;98.30;;;;;;5150390;23;20404;-79
2021/11/12 16:45:32;;;;;;;17.37;14.80;;;8.60;98.30;;;;;;5151209;23;20405;-80
2021/11/12 16:47:57;;;;;;;20.27;18.17;;;8.60;98.30;;;;;;5142512;23;20452;-80
2021/11/12 16:50:21;;;;;;;22.00;16.40;;;8.50;98.30;;;;;;5142519;23;20416;-80
2021/11/12 16:52:42;;;;;;;19.17;17.13;;;8.50;98.30;;;;;;5142726;23;21018;-81
2021/11/12 16:55:06;;;;;;;20.40;17.67;;;8.50;98.30;;;;;;5150498;23;20920;-81
2021/11/12 16:57:18;;;;;;;21.03;18.00;;;8.40;98.30;;;;;;5141901;23;20429;-81
2021/11/12 16:59:24;;;;;;;23.57;18.10;;;8.20;98.30;;;;;;5150799;23;20735;-80
2021/11/12 17:01:58;;;;;;;20.80;18.57;;;8.20;98.30;;;;;;5141919;23;20437;-81
2021/11/12 17:04:14;;;;;;;22.37;17.17;;;8.10;98.30;;;;;;5151277;23;20744;-80
2021/11/12 17:06:20;;;;;;;29.53;21.70;;;8.10;98.30;;;;;;5150615;23;20913;-81
2021/11/12 17:08:38;;;;;;;23.67;20.90;;;7.90;98.30;;;;;;5142340;23;20465;-81
2021/11/12 17:10:48;;;;;;;27.13;24.17;;;7.90;98.30;;;;;;5151016;23;20398;-81
2021/11/12 17:13:07;;;;;;;27.97;23.90;;;7.90;98.30;;;;;;5151125;23;20422;-81
2021/11/12 17:15:25;;;;;;;24.50;21.90;;;7.90;98.30;;;;;;5151024;23;20426;-81
2021/11/12 17:17:34;;;;;;;23.93;21.33;;;7.90;98.30;;;;;;5142757;23;20454;-81
2021/11/12 17:19:47;;;;;;;29.43;22.63;;;7.90;98.30;;;;;;5151596;23;20416;-81
2021/11/12 17:48:04;;;;;;;26.73;23.17;;;7.80;98.30;;;;;;5147421;23;20502;-80
2021/11/12 17:50:13;;;;;;;25.40;22.70;;;7.70;98.30;;;;;;5146966;23;20456;-80
2021/11/12 18:04:02;;;;;;;30.07;24.47;;;7.60;98.30;;;;;;5145549;23;20429;-79
2021/11/12 18:06:15;;;;;;;29.80;23.77;;;7.60;98.30;;;;;;5155551;23;20488;-79
2021/11/12 18:08:43;;;;;;;34.20;23.83;;;7.60;98.30;;;;;;5155025;23;20468;-79
2021/11/12 18:22:51;;;;;;;37.30;27.00;;;7.50;98.30;;;;;;5145503;23;20940;-79
2021/11/12 21:44:48;;;;;;;52.50;36.93;;;6.10;98.30;;;;;;5143771;23;20434;-79
2021/11/12 21:46:51;;;;;;;58.13;39.80;;;6.10;98.30;;;;;;5144296;23;20517;-78
2021/11/12 21:48:58;;;;;;;58.70;38.43;;;6.10;98.30;;;;;;5143440;23;20453;-79
2021/11/12 21:51:04;;;;;;;58.70;37.93;;;6.10;98.30;;;;;;5152193;23;20426;-79
2021/11/12 21:53:07;;;;;;;58.20;40.00;;;6.20;98.30;;;;;;5143826;23;20456;-79
2021/11/12 21:55:10;;;;;;;56.90;38.97;;;6.20;98.30;;;;;;5143644;23;20438;-79
2021/11/12 21:57:13;;;;;;;59.83;37.60;;;6.10;98.30;;;;;;5143500;23;20430;-79
2021/11/12 21:59:16;;;;;;;57.20;38.57;;;6.10;98.30;;;;;;5143985;23;20436;-79
2021/11/12 22:01:20;;;;;;;57.07;36.43;;;6.20;98.30;;;;;;5143304;23;20458;-79
2021/11/12 22:03:27;;;;;;;58.10;35.40;;;6.10;98.30;;;;;;5143627;23;20437;-79
2021/11/12 22:05:30;;;;;;;55.13;35.10;;;6.10;98.30;;;;;;5143625;23;20408;-79
2021/11/12 22:07:36;;;;;;;56.43;35.83;;;6.10;98.30;;;;;;5151179;23;20434;-78
2021/11/12 22:09:39;;;;;;;55.80;37.30;;;6.20;98.30;;;;;;5144259;23;20450;-79
2021/11/12 22:11:42;;;;;;;58.80;34.83;;;6.10;98.30;;;;;;5143418;23;20454;-79
2021/11/12 22:13:46;;;;;;;56.13;37.13;;;6.20;98.30;;;;;;5143813;23;20437;-79
2021/11/12 22:15:49;;;;;;;57.50;37.77;;;6.20;98.30;;;;;;5145047;23;20743;-79
2021/11/12 22:17:52;;;;;;;56.93;37.30;;;6.20;98.30;;;;;;5153228;23;20937;-79
2021/11/12 22:19:54;;;;;;;54.07;36.67;;;6.20;98.30;;;;;;5144428;23;20429;-79
2021/11/12 22:21:57;;;;;;;56.87;36.03;;;6.10;98.30;;;;;;5153153;23;20442;-78
2021/11/12 22:24:02;;;;;;;57.77;37.80;;;6.10;98.30;;;;;;5145167;23;20483;-78
2021/11/12 22:26:05;;;;;;;62.27;36.63;;;6.10;98.30;;;;;;5145211;23;20407;-79
2021/11/12 22:28:08;;;;;;;57.97;35.70;;;6.10;98.30;;;;;;5152704;23;20491;-79
2021/11/12 22:30:13;;;;;;;53.70;36.47;;;6.10;98.30;;;;;;5144927;23;20408;-79
2021/11/12 22:32:15;;;;;;;60.20;36.27;;;6.10;98.30;;;;;;5147233;23;20429;-79
2021/11/12 22:34:19;;;;;;;58.57;37.60;;;6.20;98.30;;;;;;5153644;23;20400;-79
2021/11/12 22:36:21;;;;;;;57.93;36.47;;;6.00;98.30;;;;;;5145527;23;20596;-79
2021/11/12 22:38:25;;;;;;;58.43;36.27;;;6.10;98.30;;;;;;5152393;23;20440;-79
2021/11/12 22:40:29;;;;;;;56.10;37.00;;;6.20;98.30;;;;;;5145472;23;20999;-79
2021/11/12 22:42:32;;;;;;;62.60;38.43;;;6.20;98.30;;;;;;5144618;23;20441;-79
2021/11/12 22:44:35;;;;;;;55.93;37.70;;;6.10;98.30;;;;;;5145413;23;20404;-78
2021/11/12 22:46:39;;;;;;;55.00;37.13;;;6.10;98.30;;;;;;5143124;23;20803;-78
2021/11/12 22:48:42;;;;;;;56.83;36.73;;;6.00;98.30;;;;;;5149080;23;20422;-78
2021/11/12 22:50:45;;;;;;;56.40;36.47;;;6.00;98.30;;;;;;5141669;23;20437;-78
2021/11/12 22:52:48;;;;;;;54.83;36.10;;;6.10;98.30;;;;;;5149903;23;20752;-79
2021/11/12 22:54:52;;;;;;;60.47;37.73;;;6.10;98.30;;;;;;5149860;23;20425;-78
2021/11/12 22:56:56;;;;;;;55.10;36.43;;;6.10;98.30;;;;;;5142035;23;20440;-79
2021/11/12 22:58:59;;;;;;;54.30;36.57;;;6.10;98.30;;;;;;5142016;23;20452;-79
2021/11/12 23:01:09;;;;;;;56.30;39.20;;;6.10;98.30;;;;;;5142004;23;20427;-79
2021/11/12 23:03:37;;;;;;;53.87;37.30;;;6.10;98.30;;;;;;5145625;23;20469;-79
2021/11/12 23:05:40;;;;;;;61.60;37.70;;;6.10;98.30;;;;;;5146737;23;20403;-78
2021/11/12 23:07:43;;;;;;;66.23;38.97;;;6.10;98.30;;;;;;5145454;23;20452;-79
2021/11/12 23:09:47;;;;;;;56.87;37.13;;;6.00;98.30;;;;;;5146023;23;20798;-79
2021/11/12 23:11:49;;;;;;;58.50;37.33;;;6.10;98.30;;;;;;5154049;23;20422;-79
2021/11/12 23:13:54;;;;;;;57.67;37.10;;;6.00;98.30;;;;;;5154597;23;20423;-79
2021/11/12 23:15:58;;;;;;;64.30;37.37;;;6.10;98.30;;;;;;5153602;23;20461;-79
2021/11/12 23:18:01;;;;;;;61.50;39.03;;;6.00;98.30;;;;;;5145781;23;20454;-79
2021/11/12 23:20:05;;;;;;;59.00;36.73;;;6.00;98.30;;;;;;5141871;23;20753;-79
2021/11/12 23:22:08;;;;;;;63.17;37.70;;;6.00;98.30;;;;;;5142187;23;20449;-79
2021/11/12 23:24:11;;;;;;;63.00;38.43;;;6.00;98.30;;;;;;5142298;23;20412;-78
2021/11/12 23:26:13;;;;;;;57.57;38.47;;;6.00;98.30;;;;;;5141877;23;20436;-79
2021/11/12 23:28:16;;;;;;;61.70;38.60;;;5.90;98.30;;;;;;5151306;23;20896;-79
2021/11/12 23:30:22;;;;;;;65.87;40.20;;;6.00;98.30;;;;;;5142716;23;20404;-79
2021/11/12 23:32:25;;;;;;;61.60;38.60;;;6.00;98.30;;;;;;5151415;23;20403;-79
2021/11/12 23:34:28;;;;;;;55.57;37.10;;;6.00;98.30;;;;;;5150862;23;20417;-79
2021/11/12 23:36:31;;;;;;;63.20;38.30;;;6.00;98.30;;;;;;5151195;23;20492;-79
2021/11/12 23:38:34;;;;;;;64.83;40.60;;;6.00;98.30;;;;;;5142151;23;20459;-79
2021/11/12 23:40:37;;;;;;;63.13;38.63;;;6.00;98.30;;;;;;5142735;23;20424;-79
2021/11/12 23:42:40;;;;;;;62.50;39.03;;;5.90;98.30;;;;;;5150434;23;20423;-79
2021/11/12 23:44:43;;;;;;;64.40;38.97;;;6.00;98.30;;;;;;5150956;23;20407;-79
2021/11/12 23:46:48;;;;;;;67.23;41.73;;;6.00;98.30;;;;;;5142799;23;20756;-78
2021/11/12 23:48:51;;;;;;;63.80;39.10;;;5.90;98.30;;;;;;5143283;23;20939;-79
2021/11/12 23:50:54;;;;;;;60.57;37.97;;;5.90;98.30;;;;;;5144982;23;20429;-78
2021/11/12 23:52:57;;;;;;;61.43;38.60;;;5.90;98.30;;;;;;5143946;23;20425;-79
2021/11/12 23:55:02;;;;;;;67.30;39.10;;;6.00;98.30;;;;;;5144599;23;20434;-79
2021/11/12 23:57:06;;;;;;;66.90;38.70;;;6.00;98.30;;;;;;5144257;23;20768;-78
2021/11/12 23:59:09;;;;;;;63.37;38.60;;;6.00;98.30;;;;;;5144489;23;20486;-79
